sensor_id;sensor_type;location;lat;lon;timestamp;temperature;humidity
25012;DHT22;13027;49.358;11.256;2022-07-06T00:00:35;14.60;99.90
25012;DHT22;13027;49.358;11.256;2022-07-06T00:03:00;14.40;99.90
25012;DHT22;13027;49.358;11.256;2022-07-06T00:05:26;14.20;99.90
25012;DHT22;13027;49.358;11.256;2022-07-06T00:07:51;14.20;99.90
25012;DHT22;13027;49.358;11.256;2022-07-06T00:10:17;14.10;99.90
25012;DHT22;13027;49.358;11.256;2022-07-06T00:12:42;14.10;99.90
25012;DHT22;13027;49.358;11.256;2022-07-06T00:15:08;14.00;99.90
25012;DHT22;13027;49.358;11.256;2022-07-06T00:17:33;14.10;99.90
25012;DHT22;13027;49.358;11.256;2022-07-06T00:19:59;14.10;99.90
25012;DHT22;13027;49.358;11.256;2022-07-06T00:22:24;14.20;99.90
25012;DHT22;13027;49.358;11.256;2022-07-06T00:24:50;14.30;99.90
25012;DHT22;13027;49.358;11.256;2022-07-06T00:27:15;14.50;99.90
25012;DHT22;13027;49.358;11.256;2022-07-06T00:29:41;14.40;99.90
25012;DHT22;13027;49.358;11.256;2022-07-06T00:32:10;14.20;99.90
25012;DHT22;13027;49.358;11.256;2022-07-06T00:34:36;13.90;99.90
25012;DHT22;13027;49.358;11.256;2022-07-06T00:37:01;13.80;99.90
25012;DHT22;13027;49.358;11.256;2022-07-06T00:39:27;13.70;99.90
25012;DHT22;13027;49.358;11.256;2022-07-06T00:41:55;13.60;99.90
25012;DHT22;13027;49.358;11.256;2022-07-06T00:44:20;13.60;99.90
25012;DHT22;13027;49.358;11.256;2022-07-06T00:46:46;13.80;99.90
25012;DHT22;13027;49.358;11.256;2022-07-06T00:49:11;14.00;99.90
25012;DHT22;13027;49.358;11.256;2022-07-06T00:51:57;14.10;99.90
25012;DHT22;13027;49.358;11.256;2022-07-06T00:54:23;14.00;99.90
25012;DHT22;13027;49.358;11.256;2022-07-06T00:56:49;13.80;99.90
25012;DHT22;13027;49.358;11.256;2022-07-06T00:59:14;13.60;99.90
25012;DHT22;13027;49.358;11.256;2022-07-06T01:01:40;13.60;99.90
25012;DHT22;13027;49.358;11.256;2022-07-06T01:04:05;13.60;99.90
25012;DHT22;13027;49.358;11.256;2022-07-06T01:06:31;13.60;99.90
25012;DHT22;13027;49.358;11.256;2022-07-06T01:08:56;13.70;99.90
25012;DHT22;13027;49.358;11.256;2022-07-06T01:11:22;13.80;99.90
25012;DHT22;13027;49.358;11.256;2022-07-06T01:13:48;13.70;99.90
25012;DHT22;13027;49.358;11.256;2022-07-06T01:16:14;13.50;99.90
25012;DHT22;13027;49.358;11.256;2022-07-06T01:18:39;13.40;99.90
25012;DHT22;13027;49.358;11.256;2022-07-06T01:21:12;13.40;99.90
25012;DHT22;13027;49.358;11.256;2022-07-06T01:23:45;13.30;99.90
25012;DHT22;13027;49.358;11.256;2022-07-06T01:26:16;13.20;99.90
25012;DHT22;13027;49.358;11.256;2022-07-06T01:28:43;13.20;99.90
25012;DHT22;13027;49.358;11.256;2022-07-06T01:31:15;13.10;99.90
25012;DHT22;13027;49.358;11.256;2022-07-06T01:33:41;13.10;99.90
25012;DHT22;13027;49.358;11.256;2022-07-06T01:36:07;13.10;99.90
25012;DHT22;13027;49.358;11.256;2022-07-06T01:38:42;12.90;99.90
25012;DHT22;13027;49.358;11.256;2022-07-06T01:41:07;12.90;99.90
25012;DHT22;13027;49.358;11.256;2022-07-06T01:43:33;12.80;99.90
25012;DHT22;13027;49.358;11.256;2022-07-06T01:45:58;12.90;99.90
25012;DHT22;13027;49.358;11.256;2022-07-06T01:48:24;12.90;99.90
25012;DHT22;13027;49.358;11.256;2022-07-06T01:50:49;12.80;99.90
25012;DHT22;13027;49.358;11.256;2022-07-06T01:53:15;12.70;99.90
25012;DHT22;13027;49.358;11.256;2022-07-06T01:55:40;12.70;99.90
25012;DHT22;13027;49.358;11.256;2022-07-06T01:58:06;12.70;99.90
25012;DHT22;13027;49.358;11.256;2022-07-06T02:00:31;12.80;99.90
25012;DHT22;13027;49.358;11.256;2022-07-06T02:02:57;12.80;99.90
25012;DHT22;13027;49.358;11.256;2022-07-06T02:05:22;12.70;99.90
25012;DHT22;13027;49.358;11.256;2022-07-06T02:07:48;12.60;99.90
25012;DHT22;13027;49.358;11.256;2022-07-06T02:10:13;12.50;99.90
25012;DHT22;13027;49.358;11.256;2022-07-06T02:12:39;12.60;99.90
25012;DHT22;13027;49.358;11.256;2022-07-06T02:15:05;12.50;99.90
25012;DHT22;13027;49.358;11.256;2022-07-06T02:17:30;12.40;99.90
25012;DHT22;13027;49.358;11.256;2022-07-06T02:19:56;12.30;99.90
25012;DHT22;13027;49.358;11.256;2022-07-06T02:22:21;12.20;99.90
25012;DHT22;13027;49.358;11.256;2022-07-06T02:24:47;12.10;99.90
25012;DHT22;13027;49.358;11.256;2022-07-06T02:27:12;12.20;99.90
25012;DHT22;13027;49.358;11.256;2022-07-06T02:29:38;12.30;99.90
25012;DHT22;13027;49.358;11.256;2022-07-06T02:32:03;12.30;99.90
25012;DHT22;13027;49.358;11.256;2022-07-06T02:34:29;12.30;99.90
25012;DHT22;13027;49.358;11.256;2022-07-06T02:36:54;12.20;99.90
25012;DHT22;13027;49.358;11.256;2022-07-06T02:39:20;12.10;99.90
25012;DHT22;13027;49.358;11.256;2022-07-06T02:41:45;12.10;99.90
25012;DHT22;13027;49.358;11.256;2022-07-06T02:44:11;12.10;99.90
25012;DHT22;13027;49.358;11.256;2022-07-06T02:46:36;12.20;99.90
25012;DHT22;13027;49.358;11.256;2022-07-06T02:49:02;12.10;99.90
25012;DHT22;13027;49.358;11.256;2022-07-06T02:51:27;11.80;99.90
25012;DHT22;13027;49.358;11.256;2022-07-06T02:53:53;11.80;99.90
25012;DHT22;13027;49.358;11.256;2022-07-06T02:56:18;11.70;99.90
25012;DHT22;13027;49.358;11.256;2022-07-06T02:58:44;11.80;99.90
25012;DHT22;13027;49.358;11.256;2022-07-06T03:01:09;11.90;99.90
25012;DHT22;13027;49.358;11.256;2022-07-06T03:03:35;12.00;99.90
25012;DHT22;13027;49.358;11.256;2022-07-06T03:06:00;12.00;99.90
25012;DHT22;13027;49.358;11.256;2022-07-06T03:08:26;12.00;99.90
25012;DHT22;13027;49.358;11.256;2022-07-06T03:10:51;11.90;99.90
25012;DHT22;13027;49.358;11.256;2022-07-06T03:13:17;12.00;99.90
25012;DHT22;13027;49.358;11.256;2022-07-06T03:15:42;12.10;99.90
25012;DHT22;13027;49.358;11.256;2022-07-06T03:18:08;12.20;99.90
25012;DHT22;13027;49.358;11.256;2022-07-06T03:20:33;12.40;99.90
25012;DHT22;13027;49.358;11.256;2022-07-06T03:22:59;12.50;99.90
25012;DHT22;13027;49.358;11.256;2022-07-06T03:25:24;12.60;99.90
25012;DHT22;13027;49.358;11.256;2022-07-06T03:27:50;12.80;99.90
25012;DHT22;13027;49.358;11.256;2022-07-06T03:30:15;12.80;99.90
25012;DHT22;13027;49.358;11.256;2022-07-06T03:32:41;12.80;99.90
25012;DHT22;13027;49.358;11.256;2022-07-06T03:35:06;12.60;99.90
25012;DHT22;13027;49.358;11.256;2022-07-06T03:37:32;12.00;99.90
25012;DHT22;13027;49.358;11.256;2022-07-06T03:39:57;12.10;99.90
25012;DHT22;13027;49.358;11.256;2022-07-06T03:42:23;12.30;99.90
25012;DHT22;13027;49.358;11.256;2022-07-06T03:44:48;12.30;99.90
25012;DHT22;13027;49.358;11.256;2022-07-06T03:47:14;12.30;99.90
25012;DHT22;13027;49.358;11.256;2022-07-06T03:49:39;12.30;99.90
25012;DHT22;13027;49.358;11.256;2022-07-06T03:52:05;12.20;99.90
25012;DHT22;13027;49.358;11.256;2022-07-06T03:54:30;11.90;99.90
25012;DHT22;13027;49.358;11.256;2022-07-06T03:56:56;12.00;99.90
25012;DHT22;13027;49.358;11.256;2022-07-06T03:59:21;12.00;99.90
25012;DHT22;13027;49.358;11.256;2022-07-06T04:01:47;12.60;99.90
25012;DHT22;13027;49.358;11.256;2022-07-06T04:04:12;12.20;99.90
25012;DHT22;13027;49.358;11.256;2022-07-06T04:06:38;12.10;99.90
25012;DHT22;13027;49.358;11.256;2022-07-06T04:09:05;12.10;99.90
25012;DHT22;13027;49.358;11.256;2022-07-06T04:11:30;12.30;99.90
25012;DHT22;13027;49.358;11.256;2022-07-06T04:13:56;12.30;99.90
25012;DHT22;13027;49.358;11.256;2022-07-06T04:16:21;12.30;99.90
25012;DHT22;13027;49.358;11.256;2022-07-06T04:18:47;12.30;99.90
25012;DHT22;13027;49.358;11.256;2022-07-06T04:21:12;12.50;99.90
25012;DHT22;13027;49.358;11.256;2022-07-06T04:23:38;12.60;99.90
25012;DHT22;13027;49.358;11.256;2022-07-06T04:26:03;12.70;99.90
25012;DHT22;13027;49.358;11.256;2022-07-06T04:28:29;12.80;99.90
25012;DHT22;13027;49.358;11.256;2022-07-06T04:30:54;12.90;99.90
25012;DHT22;13027;49.358;11.256;2022-07-06T04:33:20;13.00;99.90
25012;DHT22;13027;49.358;11.256;2022-07-06T04:35:45;13.10;99.90
25012;DHT22;13027;49.358;11.256;2022-07-06T04:38:11;13.40;99.90
25012;DHT22;13027;49.358;11.256;2022-07-06T04:40:36;13.70;99.90
25012;DHT22;13027;49.358;11.256;2022-07-06T04:43:02;13.80;99.90
25012;DHT22;13027;49.358;11.256;2022-07-06T04:45:27;13.90;99.90
25012;DHT22;13027;49.358;11.256;2022-07-06T04:47:53;14.00;99.90
25012;DHT22;13027;49.358;11.256;2022-07-06T04:50:18;14.10;99.90
25012;DHT22;13027;49.358;11.256;2022-07-06T04:52:44;14.10;99.90
25012;DHT22;13027;49.358;11.256;2022-07-06T04:55:09;14.10;99.90
25012;DHT22;13027;49.358;11.256;2022-07-06T04:57:35;13.90;99.90
25012;DHT22;13027;49.358;11.256;2022-07-06T05:00:01;13.70;99.90
25012;DHT22;13027;49.358;11.256;2022-07-06T05:02:26;13.70;99.90
25012;DHT22;13027;49.358;11.256;2022-07-06T05:04:52;13.60;99.90
25012;DHT22;13027;49.358;11.256;2022-07-06T05:07:17;13.70;99.90
25012;DHT22;13027;49.358;11.256;2022-07-06T05:09:43;14.00;99.90
25012;DHT22;13027;49.358;11.256;2022-07-06T05:12:09;14.40;99.90
25012;DHT22;13027;49.358;11.256;2022-07-06T05:14:35;14.70;99.90
25012;DHT22;13027;49.358;11.256;2022-07-06T05:17:01;14.90;99.90
25012;DHT22;13027;49.358;11.256;2022-07-06T05:19:27;15.30;99.90
25012;DHT22;13027;49.358;11.256;2022-07-06T05:21:52;15.70;99.90
25012;DHT22;13027;49.358;11.256;2022-07-06T05:24:18;15.90;99.90
25012;DHT22;13027;49.358;11.256;2022-07-06T05:26:44;16.00;99.90
25012;DHT22;13027;49.358;11.256;2022-07-06T05:29:10;16.20;99.90
25012;DHT22;13027;49.358;11.256;2022-07-06T05:31:35;16.40;99.90
25012;DHT22;13027;49.358;11.256;2022-07-06T05:34:01;16.40;99.90
25012;DHT22;13027;49.358;11.256;2022-07-06T05:36:26;16.40;99.90
25012;DHT22;13027;49.358;11.256;2022-07-06T05:38:52;16.70;99.90
25012;DHT22;13027;49.358;11.256;2022-07-06T05:41:17;16.90;99.90
25012;DHT22;13027;49.358;11.256;2022-07-06T05:43:43;17.10;99.90
25012;DHT22;13027;49.358;11.256;2022-07-06T05:46:08;17.40;99.90
25012;DHT22;13027;49.358;11.256;2022-07-06T05:48:34;17.50;99.90
25012;DHT22;13027;49.358;11.256;2022-07-06T05:51:18;17.70;99.90
25012;DHT22;13027;49.358;11.256;2022-07-06T05:53:43;17.90;99.90
25012;DHT22;13027;49.358;11.256;2022-07-06T05:56:09;18.10;99.90
25012;DHT22;13027;49.358;11.256;2022-07-06T05:58:34;18.40;99.90
25012;DHT22;13027;49.358;11.256;2022-07-06T06:01:00;18.50;99.90
25012;DHT22;13027;49.358;11.256;2022-07-06T06:03:25;18.50;99.90
25012;DHT22;13027;49.358;11.256;2022-07-06T06:05:51;18.50;99.90
25012;DHT22;13027;49.358;11.256;2022-07-06T06:08:16;18.30;99.90
25012;DHT22;13027;49.358;11.256;2022-07-06T06:10:42;18.40;99.90
25012;DHT22;13027;49.358;11.256;2022-07-06T06:13:08;18.40;99.90
25012;DHT22;13027;49.358;11.256;2022-07-06T06:15:33;18.50;99.90
25012;DHT22;13027;49.358;11.256;2022-07-06T06:18:00;18.70;99.90
25012;DHT22;13027;49.358;11.256;2022-07-06T06:20:25;18.80;99.90
25012;DHT22;13027;49.358;11.256;2022-07-06T06:22:52;18.90;99.90
25012;DHT22;13027;49.358;11.256;2022-07-06T06:25:18;18.90;99.90
25012;DHT22;13027;49.358;11.256;2022-07-06T06:27:44;18.80;99.90
25012;DHT22;13027;49.358;11.256;2022-07-06T06:30:10;19.00;99.90
25012;DHT22;13027;49.358;11.256;2022-07-06T06:32:36;19.20;99.90
25012;DHT22;13027;49.358;11.256;2022-07-06T06:35:02;19.50;99.90
25012;DHT22;13027;49.358;11.256;2022-07-06T06:37:27;19.30;99.90
25012;DHT22;13027;49.358;11.256;2022-07-06T06:39:53;19.40;99.90
25012;DHT22;13027;49.358;11.256;2022-07-06T06:42:19;19.30;99.90
25012;DHT22;13027;49.358;11.256;2022-07-06T06:44:44;19.40;99.90
25012;DHT22;13027;49.358;11.256;2022-07-06T06:47:09;19.30;99.90
25012;DHT22;13027;49.358;11.256;2022-07-06T06:49:35;19.30;99.90
25012;DHT22;13027;49.358;11.256;2022-07-06T06:52:00;19.20;99.90
25012;DHT22;13027;49.358;11.256;2022-07-06T06:54:26;19.50;99.90
25012;DHT22;13027;49.358;11.256;2022-07-06T06:56:52;19.80;99.90
25012;DHT22;13027;49.358;11.256;2022-07-06T06:59:17;20.20;99.90
25012;DHT22;13027;49.358;11.256;2022-07-06T07:01:43;20.40;99.90
25012;DHT22;13027;49.358;11.256;2022-07-06T07:04:08;20.20;99.90
25012;DHT22;13027;49.358;11.256;2022-07-06T07:06:34;20.40;99.90
25012;DHT22;13027;49.358;11.256;2022-07-06T07:08:59;20.40;99.90
25012;DHT22;13027;49.358;11.256;2022-07-06T07:11:25;20.60;99.90
25012;DHT22;13027;49.358;11.256;2022-07-06T07:13:50;21.20;99.90
25012;DHT22;13027;49.358;11.256;2022-07-06T07:16:16;21.80;99.90
25012;DHT22;13027;49.358;11.256;2022-07-06T07:18:41;22.40;99.90
25012;DHT22;13027;49.358;11.256;2022-07-06T07:21:07;22.40;99.90
25012;DHT22;13027;49.358;11.256;2022-07-06T07:23:32;22.40;99.90
25012;DHT22;13027;49.358;11.256;2022-07-06T07:25:58;22.00;99.90
25012;DHT22;13027;49.358;11.256;2022-07-06T07:28:24;22.00;99.90
25012;DHT22;13027;49.358;11.256;2022-07-06T07:30:50;22.10;99.90
25012;DHT22;13027;49.358;11.256;2022-07-06T07:33:16;22.20;99.90
25012;DHT22;13027;49.358;11.256;2022-07-06T07:35:41;22.00;99.90
25012;DHT22;13027;49.358;11.256;2022-07-06T07:38:07;22.00;99.90
25012;DHT22;13027;49.358;11.256;2022-07-06T07:40:33;22.00;99.90
25012;DHT22;13027;49.358;11.256;2022-07-06T07:42:59;22.20;99.90
25012;DHT22;13027;49.358;11.256;2022-07-06T07:45:24;22.00;99.90
25012;DHT22;13027;49.358;11.256;2022-07-06T07:47:50;21.80;99.90
25012;DHT22;13027;49.358;11.256;2022-07-06T07:50:15;21.60;99.90
25012;DHT22;13027;49.358;11.256;2022-07-06T07:52:41;21.50;99.90
25012;DHT22;13027;49.358;11.256;2022-07-06T07:55:08;21.40;99.90
25012;DHT22;13027;49.358;11.256;2022-07-06T07:57:34;21.40;99.90
25012;DHT22;13027;49.358;11.256;2022-07-06T07:59:59;21.30;99.90
25012;DHT22;13027;49.358;11.256;2022-07-06T08:02:25;21.50;99.90
25012;DHT22;13027;49.358;11.256;2022-07-06T08:04:50;21.60;99.90
25012;DHT22;13027;49.358;11.256;2022-07-06T08:07:16;21.90;99.90
25012;DHT22;13027;49.358;11.256;2022-07-06T08:09:42;21.80;99.90
25012;DHT22;13027;49.358;11.256;2022-07-06T08:12:08;21.80;99.90
25012;DHT22;13027;49.358;11.256;2022-07-06T08:14:35;21.90;99.90
25012;DHT22;13027;49.358;11.256;2022-07-06T08:17:02;21.90;99.90
25012;DHT22;13027;49.358;11.256;2022-07-06T08:19:28;21.70;99.90
25012;DHT22;13027;49.358;11.256;2022-07-06T08:21:55;21.70;99.90
25012;DHT22;13027;49.358;11.256;2022-07-06T08:24:21;21.80;99.90
25012;DHT22;13027;49.358;11.256;2022-07-06T08:26:47;22.00;99.90
25012;DHT22;13027;49.358;11.256;2022-07-06T08:29:12;22.20;99.90
25012;DHT22;13027;49.358;11.256;2022-07-06T08:31:38;22.40;99.90
25012;DHT22;13027;49.358;11.256;2022-07-06T08:34:04;22.30;99.90
25012;DHT22;13027;49.358;11.256;2022-07-06T08:36:30;22.40;99.90
25012;DHT22;13027;49.358;11.256;2022-07-06T08:38:55;22.70;99.90
25012;DHT22;13027;49.358;11.256;2022-07-06T08:41:21;22.80;99.90
25012;DHT22;13027;49.358;11.256;2022-07-06T08:43:48;23.00;99.90
25012;DHT22;13027;49.358;11.256;2022-07-06T08:46:14;23.10;99.90
25012;DHT22;13027;49.358;11.256;2022-07-06T08:48:40;22.70;99.60
25012;DHT22;13027;49.358;11.256;2022-07-06T08:51:06;22.90;99.90
25012;DHT22;13027;49.358;11.256;2022-07-06T08:53:33;22.80;99.90
25012;DHT22;13027;49.358;11.256;2022-07-06T08:55:59;22.90;99.90
25012;DHT22;13027;49.358;11.256;2022-07-06T08:58:25;23.00;99.60
25012;DHT22;13027;49.358;11.256;2022-07-06T09:00:52;23.20;98.20
25012;DHT22;13027;49.358;11.256;2022-07-06T09:03:18;23.20;98.30
25012;DHT22;13027;49.358;11.256;2022-07-06T09:05:44;23.20;98.50
25012;DHT22;13027;49.358;11.256;2022-07-06T09:08:10;23.30;98.50
25012;DHT22;13027;49.358;11.256;2022-07-06T09:10:37;23.20;99.10
25012;DHT22;13027;49.358;11.256;2022-07-06T09:13:04;23.20;98.40
25012;DHT22;13027;49.358;11.256;2022-07-06T09:15:30;23.50;97.80
25012;DHT22;13027;49.358;11.256;2022-07-06T09:17:56;23.60;97.80
25012;DHT22;13027;49.358;11.256;2022-07-06T09:20:23;23.50;96.50
25012;DHT22;13027;49.358;11.256;2022-07-06T09:22:48;23.80;96.70
25012;DHT22;13027;49.358;11.256;2022-07-06T09:25:14;23.90;96.90
25012;DHT22;13027;49.358;11.256;2022-07-06T09:27:47;25.00;96.80
25012;DHT22;13027;49.358;11.256;2022-07-06T09:30:15;26.30;93.20
25012;DHT22;13027;49.358;11.256;2022-07-06T09:32:43;25.90;93.00
25012;DHT22;13027;49.358;11.256;2022-07-06T09:35:26;25.50;93.40
25012;DHT22;13027;49.358;11.256;2022-07-06T09:40:33;24.40;93.70
25012;DHT22;13027;49.358;11.256;2022-07-06T09:43:20;24.30;93.40
25012;DHT22;13027;49.358;11.256;2022-07-06T09:45:50;24.20;93.30
25012;DHT22;13027;49.358;11.256;2022-07-06T09:48:17;24.10;93.80
25012;DHT22;13027;49.358;11.256;2022-07-06T09:50:49;23.80;93.50
25012;DHT22;13027;49.358;11.256;2022-07-06T09:53:16;23.70;94.30
25012;DHT22;13027;49.358;11.256;2022-07-06T09:55:43;24.00;94.20
25012;DHT22;13027;49.358;11.256;2022-07-06T09:58:08;23.80;94.40
25012;DHT22;13027;49.358;11.256;2022-07-06T10:00:34;23.40;94.70
25012;DHT22;13027;49.358;11.256;2022-07-06T10:03:00;23.50;94.50
25012;DHT22;13027;49.358;11.256;2022-07-06T10:05:26;23.50;93.90
25012;DHT22;13027;49.358;11.256;2022-07-06T10:07:56;24.10;93.60
25012;DHT22;13027;49.358;11.256;2022-07-06T10:10:23;24.10;93.50
25012;DHT22;13027;49.358;11.256;2022-07-06T10:12:49;23.30;94.20
25012;DHT22;13027;49.358;11.256;2022-07-06T10:15:16;23.10;94.90
25012;DHT22;13027;49.358;11.256;2022-07-06T10:17:43;23.20;94.10
25012;DHT22;13027;49.358;11.256;2022-07-06T10:20:10;23.10;94.50
25012;DHT22;13027;49.358;11.256;2022-07-06T10:22:36;23.30;94.90
25012;DHT22;13027;49.358;11.256;2022-07-06T10:25:03;23.70;95.60
25012;DHT22;13027;49.358;11.256;2022-07-06T10:27:29;23.90;95.10
25012;DHT22;13027;49.358;11.256;2022-07-06T10:29:55;24.00;94.40
25012;DHT22;13027;49.358;11.256;2022-07-06T10:32:20;24.20;94.30
25012;DHT22;13027;49.358;11.256;2022-07-06T10:34:48;24.50;93.70
25012;DHT22;13027;49.358;11.256;2022-07-06T10:37:35;24.60;94.20
25012;DHT22;13027;49.358;11.256;2022-07-06T10:39:59;24.20;93.80
25012;DHT22;13027;49.358;11.256;2022-07-06T10:42:57;23.70;94.50
25012;DHT22;13027;49.358;11.256;2022-07-06T10:50:54;23.90;94.70
25012;DHT22;13027;49.358;11.256;2022-07-06T10:53:28;24.50;94.20
25012;DHT22;13027;49.358;11.256;2022-07-06T10:56:04;24.30;94.40
25012;DHT22;13027;49.358;11.256;2022-07-06T10:58:47;24.00;93.90
25012;DHT22;13027;49.358;11.256;2022-07-06T11:01:14;23.90;93.40
25012;DHT22;13027;49.358;11.256;2022-07-06T11:03:41;24.00;94.20
25012;DHT22;13027;49.358;11.256;2022-07-06T11:11:12;23.60;93.60
25012;DHT22;13027;49.358;11.256;2022-07-06T11:16:31;23.40;94.30
25012;DHT22;13027;49.358;11.256;2022-07-06T11:18:59;24.00;93.80
25012;DHT22;13027;49.358;11.256;2022-07-06T11:21:32;23.70;91.70
25012;DHT22;13027;49.358;11.256;2022-07-06T11:23:58;23.70;92.70
25012;DHT22;13027;49.358;11.256;2022-07-06T11:26:24;24.00;92.70
25012;DHT22;13027;49.358;11.256;2022-07-06T11:28:50;24.00;92.40
25012;DHT22;13027;49.358;11.256;2022-07-06T11:31:16;23.80;92.40
25012;DHT22;13027;49.358;11.256;2022-07-06T11:33:44;23.80;92.50
25012;DHT22;13027;49.358;11.256;2022-07-06T11:36:13;23.90;93.10
25012;DHT22;13027;49.358;11.256;2022-07-06T11:38:39;24.40;92.50
25012;DHT22;13027;49.358;11.256;2022-07-06T11:41:05;24.80;91.50
25012;DHT22;13027;49.358;11.256;2022-07-06T11:43:31;24.40;92.40
25012;DHT22;13027;49.358;11.256;2022-07-06T11:45:56;23.70;93.00
25012;DHT22;13027;49.358;11.256;2022-07-06T11:48:22;23.30;93.10
25012;DHT22;13027;49.358;11.256;2022-07-06T11:51:00;23.20;92.90
25012;DHT22;13027;49.358;11.256;2022-07-06T11:53:27;23.20;93.30
25012;DHT22;13027;49.358;11.256;2022-07-06T11:55:54;23.30;93.40
25012;DHT22;13027;49.358;11.256;2022-07-06T11:58:39;23.30;93.90
25012;DHT22;13027;49.358;11.256;2022-07-06T12:01:06;23.90;92.90
25012;DHT22;13027;49.358;11.256;2022-07-06T12:03:32;24.20;93.60
25012;DHT22;13027;49.358;11.256;2022-07-06T12:06:09;24.10;92.20
25012;DHT22;13027;49.358;11.256;2022-07-06T12:08:41;24.10;92.80
25012;DHT22;13027;49.358;11.256;2022-07-06T12:11:07;24.20;91.30
25012;DHT22;13027;49.358;11.256;2022-07-06T12:13:36;23.90;91.90
25012;DHT22;13027;49.358;11.256;2022-07-06T12:16:11;23.50;92.30
25012;DHT22;13027;49.358;11.256;2022-07-06T12:18:37;23.40;92.70
25012;DHT22;13027;49.358;11.256;2022-07-06T12:21:03;23.70;92.90
25012;DHT22;13027;49.358;11.256;2022-07-06T12:23:37;24.10;92.90
25012;DHT22;13027;49.358;11.256;2022-07-06T12:26:05;24.30;92.30
25012;DHT22;13027;49.358;11.256;2022-07-06T12:28:32;24.40;90.50
25012;DHT22;13027;49.358;11.256;2022-07-06T12:30:57;24.50;88.80
25012;DHT22;13027;49.358;11.256;2022-07-06T12:33:23;24.30;89.80
25012;DHT22;13027;49.358;11.256;2022-07-06T12:35:49;24.30;90.60
25012;DHT22;13027;49.358;11.256;2022-07-06T12:38:21;24.60;90.50
25012;DHT22;13027;49.358;11.256;2022-07-06T12:40:47;24.80;90.70
25012;DHT22;13027;49.358;11.256;2022-07-06T12:43:12;24.60;89.60
25012;DHT22;13027;49.358;11.256;2022-07-06T12:45:37;24.80;89.60
25012;DHT22;13027;49.358;11.256;2022-07-06T12:48:04;25.10;88.00
25012;DHT22;13027;49.358;11.256;2022-07-06T12:50:35;25.00;86.80
25012;DHT22;13027;49.358;11.256;2022-07-06T12:53:01;25.40;86.30
25012;DHT22;13027;49.358;11.256;2022-07-06T12:55:30;25.30;87.70
25012;DHT22;13027;49.358;11.256;2022-07-06T12:57:55;24.70;87.40
25012;DHT22;13027;49.358;11.256;2022-07-06T13:00:22;24.50;86.90
25012;DHT22;13027;49.358;11.256;2022-07-06T13:02:51;24.60;88.70
25012;DHT22;13027;49.358;11.256;2022-07-06T13:05:25;24.50;87.10
25012;DHT22;13027;49.358;11.256;2022-07-06T13:07:55;24.80;87.80
25012;DHT22;13027;49.358;11.256;2022-07-06T13:10:20;25.00;86.40
25012;DHT22;13027;49.358;11.256;2022-07-06T13:12:47;24.90;84.80
25012;DHT22;13027;49.358;11.256;2022-07-06T13:15:13;25.00;83.90
25012;DHT22;13027;49.358;11.256;2022-07-06T13:17:39;25.20;85.80
25012;DHT22;13027;49.358;11.256;2022-07-06T13:20:06;25.40;86.30
25012;DHT22;13027;49.358;11.256;2022-07-06T13:22:33;25.40;84.00
25012;DHT22;13027;49.358;11.256;2022-07-06T13:24:58;24.90;84.30
25012;DHT22;13027;49.358;11.256;2022-07-06T13:27:24;24.40;84.90
25012;DHT22;13027;49.358;11.256;2022-07-06T13:29:50;24.70;87.80
25012;DHT22;13027;49.358;11.256;2022-07-06T13:32:16;24.60;87.70
25012;DHT22;13027;49.358;11.256;2022-07-06T13:34:41;24.20;85.00
25012;DHT22;13027;49.358;11.256;2022-07-06T13:37:07;24.20;85.80
25012;DHT22;13027;49.358;11.256;2022-07-06T13:39:32;24.10;85.30
25012;DHT22;13027;49.358;11.256;2022-07-06T13:41:58;24.20;86.60
25012;DHT22;13027;49.358;11.256;2022-07-06T13:44:24;24.60;85.40
25012;DHT22;13027;49.358;11.256;2022-07-06T13:46:49;23.90;85.10
25012;DHT22;13027;49.358;11.256;2022-07-06T13:49:15;24.10;87.20
25012;DHT22;13027;49.358;11.256;2022-07-06T13:51:40;24.60;86.10
25012;DHT22;13027;49.358;11.256;2022-07-06T13:54:07;24.80;86.40
25012;DHT22;13027;49.358;11.256;2022-07-06T13:56:33;24.10;85.20
25012;DHT22;13027;49.358;11.256;2022-07-06T13:58:58;23.90;86.70
25012;DHT22;13027;49.358;11.256;2022-07-06T14:01:24;24.20;85.90
25012;DHT22;13027;49.358;11.256;2022-07-06T14:03:49;24.40;86.10
25012;DHT22;13027;49.358;11.256;2022-07-06T14:06:15;24.30;86.20
25012;DHT22;13027;49.358;11.256;2022-07-06T14:08:41;24.70;85.20
25012;DHT22;13027;49.358;11.256;2022-07-06T14:11:07;25.20;85.60
25012;DHT22;13027;49.358;11.256;2022-07-06T14:13:33;25.30;85.60
25012;DHT22;13027;49.358;11.256;2022-07-06T14:15:59;25.30;84.50
25012;DHT22;13027;49.358;11.256;2022-07-06T14:18:25;25.20;84.00
25012;DHT22;13027;49.358;11.256;2022-07-06T14:20:52;24.60;83.60
25012;DHT22;13027;49.358;11.256;2022-07-06T14:23:19;24.60;84.70
25012;DHT22;13027;49.358;11.256;2022-07-06T14:25:44;24.50;82.90
25012;DHT22;13027;49.358;11.256;2022-07-06T14:28:10;24.50;85.90
25012;DHT22;13027;49.358;11.256;2022-07-06T14:30:36;24.60;86.20
25012;DHT22;13027;49.358;11.256;2022-07-06T14:33:05;24.50;86.70
25012;DHT22;13027;49.358;11.256;2022-07-06T14:35:38;24.80;85.60
25012;DHT22;13027;49.358;11.256;2022-07-06T14:38:04;24.30;84.80
25012;DHT22;13027;49.358;11.256;2022-07-06T14:40:30;24.40;86.10
25012;DHT22;13027;49.358;11.256;2022-07-06T14:42:56;24.70;85.40
25012;DHT22;13027;49.358;11.256;2022-07-06T14:45:22;24.60;85.10
25012;DHT22;13027;49.358;11.256;2022-07-06T14:47:47;24.60;85.20
25012;DHT22;13027;49.358;11.256;2022-07-06T14:50:13;24.60;85.40
25012;DHT22;13027;49.358;11.256;2022-07-06T14:52:38;24.60;85.60
25012;DHT22;13027;49.358;11.256;2022-07-06T14:55:04;25.00;85.20
25012;DHT22;13027;49.358;11.256;2022-07-06T14:57:29;25.30;84.30
25012;DHT22;13027;49.358;11.256;2022-07-06T14:59:55;25.10;83.80
25012;DHT22;13027;49.358;11.256;2022-07-06T15:02:21;24.90;83.20
25012;DHT22;13027;49.358;11.256;2022-07-06T15:04:46;24.70;82.30
25012;DHT22;13027;49.358;11.256;2022-07-06T15:07:12;24.80;80.80
25012;DHT22;13027;49.358;11.256;2022-07-06T15:09:37;24.60;82.90
25012;DHT22;13027;49.358;11.256;2022-07-06T15:12:03;24.40;83.10
25012;DHT22;13027;49.358;11.256;2022-07-06T15:14:29;24.60;83.50
25012;DHT22;13027;49.358;11.256;2022-07-06T15:16:54;24.80;83.40
25012;DHT22;13027;49.358;11.256;2022-07-06T15:19:20;24.90;83.30
25012;DHT22;13027;49.358;11.256;2022-07-06T15:21:46;24.80;82.80
25012;DHT22;13027;49.358;11.256;2022-07-06T15:24:12;24.50;83.50
25012;DHT22;13027;49.358;11.256;2022-07-06T15:26:37;24.40;83.10